createdAt,value
2022-11-25T00:01:16.118Z,4.61
2022-11-25T00:03:43.949Z,4.50
2022-11-25T00:06:17.055Z,4.47
2022-11-25T00:08:45.639Z,4.56
2022-11-25T00:11:14.065Z,4.48
2022-11-25T00:13:41.819Z,4.47
2022-11-25T00:16:14.057Z,4.37
2022-11-25T00:18:44.891Z,4.40
2022-11-25T00:21:14.383Z,4.42
2022-11-25T00:23:41.144Z,4.28
2022-11-25T00:26:14.985Z,4.31
2022-11-25T00:28:44.188Z,4.38
2022-11-25T00:31:15.089Z,4.45
2022-11-25T00:33:41.749Z,4.41
2022-11-25T00:36:16.204Z,4.40
2022-11-25T00:38:42.855Z,4.41
2022-11-25T00:41:28.204Z,4.43
2022-11-25T00:46:44.788Z,4.35
2022-11-25T00:49:11.439Z,4.32
2022-11-25T00:54:09.584Z,4.27
2022-11-25T00:56:36.172Z,4.31
2022-11-25T00:59:03.447Z,4.27
2022-11-25T01:01:30.160Z,4.34
2022-11-25T01:03:56.855Z,4.32
2022-11-25T01:06:23.983Z,4.40
2022-11-25T01:08:50.911Z,4.43
2022-11-25T01:11:20.774Z,4.44
2022-11-25T01:13:47.990Z,4.56
2022-11-25T01:16:18.285Z,4.69
2022-11-25T01:18:45.755Z,4.70
2022-11-25T01:21:15.457Z,4.81
2022-11-25T01:23:42.941Z,4.96
2022-11-25T01:26:12.531Z,5.02
2022-11-25T01:28:39.734Z,5.04
2022-11-25T01:31:21.306Z,4.87
2022-11-25T01:33:52.235Z,4.72
2022-11-25T01:36:19.729Z,4.56
2022-11-25T01:38:52.183Z,4.61
2022-11-25T01:41:19.562Z,4.57
2022-11-25T01:44:10.996Z,4.58
2022-11-25T01:46:58.165Z,4.64
2022-11-25T01:52:19.630Z,4.71
2022-11-25T01:55:05.701Z,4.64
2022-11-25T01:57:41.085Z,4.57
2022-11-25T02:00:08.752Z,4.63
2022-11-25T02:02:36.167Z,4.73
2022-11-25T02:05:08.223Z,4.90
2022-11-25T02:07:41.323Z,4.97
2022-11-25T02:10:11.842Z,4.94
2022-11-25T02:12:41.384Z,4.84
2022-11-25T02:17:40.131Z,5.01
2022-11-25T02:20:11.562Z,5.02
2022-11-25T02:22:52.312Z,4.99
2022-11-25T02:25:45.793Z,5.01
2022-11-25T02:28:18.452Z,4.92
2022-11-25T02:30:46.242Z,4.92
2022-11-25T02:33:13.376Z,5.06
2022-11-25T02:35:42.471Z,4.98
2022-11-25T02:38:37.492Z,4.93
2022-11-25T02:41:13.618Z,4.97
2022-11-25T02:43:41.468Z,4.90
2022-11-25T02:46:18.786Z,4.90
2022-11-25T02:51:35.211Z,4.75
2022-11-25T02:54:02.049Z,4.41
2022-11-25T02:56:31.818Z,4.18
2022-11-25T03:01:32.152Z,4.62
2022-11-25T03:03:59.545Z,4.54
2022-11-25T03:06:26.508Z,4.69
2022-11-25T03:08:54.026Z,4.61
2022-11-25T03:11:20.846Z,4.57
2022-11-25T03:13:47.603Z,4.63
2022-11-25T03:16:14.304Z,4.66
2022-11-25T03:18:41.026Z,4.64
2022-11-25T03:21:07.796Z,4.58
2022-11-25T03:23:34.489Z,4.62
2022-11-25T03:26:05.821Z,4.30
2022-11-25T03:28:32.485Z,4.22
2022-11-25T03:30:59.136Z,4.30
2022-11-25T03:33:25.833Z,4.30
2022-11-25T03:38:26.809Z,4.27
2022-11-25T03:40:53.513Z,4.25
2022-11-25T03:43:20.840Z,4.15
2022-11-25T03:45:52.897Z,4.07
2022-11-25T03:48:19.601Z,4.15
2022-11-25T03:50:48.682Z,4.26
2022-11-25T03:53:15.348Z,4.13
2022-11-25T03:55:42.044Z,4.14
2022-11-25T04:00:40.275Z,4.15
2022-11-25T04:03:06.969Z,4.12
2022-11-25T04:05:33.585Z,4.09
2022-11-25T04:08:00.345Z,4.05
2022-11-25T04:10:26.994Z,3.85
2022-11-25T04:12:54.379Z,3.88
2022-11-25T04:15:21.260Z,3.87
2022-11-25T04:17:47.958Z,3.72
2022-11-25T04:20:15.701Z,3.54
2022-11-25T04:22:42.723Z,3.65
2022-11-25T04:25:10.060Z,3.71
2022-11-25T04:27:36.756Z,3.76
2022-11-25T04:30:04.272Z,3.73
2022-11-25T04:32:30.932Z,3.58
2022-11-25T04:34:57.599Z,3.57
2022-11-25T04:37:24.291Z,3.61
2022-11-25T04:39:50.989Z,3.55
2022-11-25T04:42:33.495Z,3.46
2022-11-25T04:45:22.496Z,3.41
2022-11-25T04:47:49.478Z,3.50
2022-11-25T04:50:19.151Z,3.52
2022-11-25T04:52:45.929Z,3.61
2022-11-25T04:55:12.709Z,3.68
2022-11-25T04:57:39.439Z,3.58
2022-11-25T05:00:07.037Z,3.47
2022-11-25T05:02:33.814Z,3.45
2022-11-25T05:05:00.546Z,3.46
2022-11-25T05:07:28.644Z,3.41
2022-11-25T05:09:56.242Z,3.38
2022-11-25T05:12:25.831Z,3.35
2022-11-25T05:14:52.594Z,3.20
2022-11-25T05:17:22.034Z,3.17
2022-11-25T05:19:49.632Z,3.16
2022-11-25T05:22:19.651Z,3.31
2022-11-25T05:24:46.341Z,3.43
2022-11-25T05:27:13.178Z,3.72
2022-11-25T05:29:40.007Z,3.68
2022-11-25T05:32:07.279Z,3.59
2022-11-25T05:34:35.216Z,3.46
2022-11-25T05:37:02.138Z,3.36
2022-11-25T05:39:28.960Z,3.43
2022-11-25T05:41:55.678Z,3.58
2022-11-25T05:46:59.824Z,3.67
2022-11-25T05:49:26.511Z,3.73
2022-11-25T05:51:53.185Z,3.80
2022-11-25T05:54:19.893Z,3.77
2022-11-25T05:56:46.532Z,3.88
2022-11-25T05:59:13.165Z,3.95
2022-11-25T06:01:39.865Z,3.96
2022-11-25T06:04:06.533Z,3.95
2022-11-25T06:06:33.276Z,3.87
2022-11-25T06:09:00.241Z,3.93
2022-11-25T06:11:27.306Z,3.81
2022-11-25T06:13:56.999Z,3.59
2022-11-25T06:16:24.205Z,3.69
2022-11-25T06:18:51.095Z,3.73
2022-11-25T06:21:18.165Z,3.87
2022-11-25T06:23:47.601Z,3.91
2022-11-25T06:26:15.798Z,3.76
2022-11-25T06:31:20.439Z,3.93
2022-11-25T06:33:48.710Z,4.03
2022-11-25T06:36:18.971Z,4.01
2022-11-25T06:41:21.415Z,3.78
2022-11-25T06:43:48.228Z,3.62
2022-11-25T06:46:22.760Z,3.58
2022-11-25T06:48:51.840Z,3.75
2022-11-25T06:51:18.549Z,3.52
2022-11-25T06:53:45.266Z,3.32
2022-11-25T06:56:17.768Z,3.31
2022-11-25T06:58:45.503Z,3.43
2022-11-25T07:01:13.712Z,3.45
2022-11-25T07:03:41.512Z,3.53
2022-11-25T07:06:09.149Z,3.58
2022-11-25T07:11:18.527Z,3.43
2022-11-25T07:13:46.324Z,3.53
2022-11-25T07:16:14.043Z,3.58
2022-11-25T07:18:41.749Z,3.59
2022-11-25T07:21:14.849Z,3.67
2022-11-25T07:23:43.022Z,3.73
2022-11-25T07:26:15.457Z,3.88
2022-11-25T07:28:42.817Z,4.01
2022-11-25T07:31:23.746Z,3.95
2022-11-25T07:33:53.410Z,4.30
2022-11-25T07:36:20.422Z,4.13
2022-11-25T07:38:47.132Z,4.19
2022-11-25T07:41:19.798Z,4.19
2022-11-25T07:43:52.690Z,3.99
2022-11-25T07:46:26.817Z,3.98
2022-11-25T07:48:56.005Z,4.12
2022-11-25T07:51:32.601Z,4.05
2022-11-25T07:54:01.560Z,4.19
2022-11-25T07:56:29.752Z,4.24
2022-11-25T07:58:57.848Z,4.36
2022-11-25T08:01:25.227Z,4.41
2022-11-25T08:03:53.547Z,4.49
2022-11-25T08:06:22.424Z,4.43
2022-11-25T08:08:49.486Z,4.63
2022-11-25T08:11:21.800Z,4.69
2022-11-25T08:13:48.870Z,4.74
2022-11-25T08:16:18.197Z,4.92
2022-11-25T08:18:45.470Z,4.99
2022-11-25T08:21:13.876Z,4.88
2022-11-25T08:23:43.483Z,4.85
2022-11-25T08:26:13.876Z,4.96
2022-11-25T08:28:41.645Z,4.86
2022-11-25T08:31:15.655Z,5.00
2022-11-25T08:33:43.492Z,5.12
2022-11-25T08:36:10.791Z,5.16
2022-11-25T08:38:37.705Z,5.26
2022-11-25T08:41:13.676Z,5.34
2022-11-25T08:43:40.820Z,5.55
2022-11-25T08:46:13.187Z,5.53
2022-11-25T08:48:40.310Z,5.59
2022-11-25T08:51:19.236Z,5.64
2022-11-25T08:53:47.313Z,5.65
2022-11-25T08:56:15.106Z,5.79
2022-11-25T08:58:41.766Z,5.85
2022-11-25T09:01:08.712Z,5.95
2022-11-25T09:03:38.860Z,6.10
2022-11-25T09:06:06.772Z,6.09
2022-11-25T09:08:33.855Z,6.08
2022-11-25T09:11:01.368Z,6.15
2022-11-25T09:13:28.020Z,6.13
2022-11-25T09:15:55.035Z,6.44
2022-11-25T09:18:26.245Z,6.42
2022-11-25T09:20:53.586Z,6.37
2022-11-25T09:23:20.945Z,6.41
2022-11-25T09:25:55.276Z,6.40
2022-11-25T09:28:22.733Z,6.60
2022-11-25T09:30:50.070Z,6.59
2022-11-25T09:33:17.713Z,6.63
2022-11-25T09:35:44.463Z,6.82
2022-11-25T09:38:11.150Z,6.99
2022-11-25T09:40:52.049Z,7.12
2022-11-25T09:43:44.393Z,7.14
2022-11-25T09:46:59.212Z,7.39
2022-11-25T09:49:53.330Z,7.42
2022-11-25T09:52:52.684Z,7.54
2022-11-25T09:55:24.779Z,7.61
2022-11-25T09:58:13.597Z,7.50
2022-11-25T10:00:43.751Z,7.67
2022-11-25T10:03:16.832Z,7.69
2022-11-25T10:05:52.808Z,7.69
2022-11-25T10:11:02.231Z,7.67
2022-11-25T10:13:55.129Z,7.81
2022-11-25T10:16:36.066Z,7.78
2022-11-25T10:19:17.747Z,7.75
2022-11-25T10:21:46.527Z,7.82
2022-11-25T10:24:15.473Z,7.90
2022-11-25T10:26:44.568Z,7.92
2022-11-25T10:29:13.824Z,7.93
2022-11-25T10:31:43.054Z,7.93
2022-11-25T10:34:21.150Z,7.97
2022-11-25T10:36:51.897Z,8.00
2022-11-25T10:39:29.211Z,8.02
2022-11-25T10:42:03.719Z,8.11
2022-11-25T10:44:32.922Z,8.12
2022-11-25T10:47:35.682Z,8.11
2022-11-25T10:50:08.107Z,8.18
2022-11-25T10:52:40.426Z,8.17
2022-11-25T10:55:16.603Z,8.18
2022-11-25T10:57:43.768Z,8.25
2022-11-25T11:00:32.944Z,8.26
2022-11-25T11:03:13.993Z,8.25
2022-11-25T11:05:50.985Z,8.12
2022-11-25T11:08:43.669Z,8.09
2022-11-25T11:11:18.816Z,8.18
2022-11-25T11:13:47.035Z,8.11
2022-11-25T11:16:28.229Z,8.10
2022-11-25T11:18:56.595Z,8.08
2022-11-25T11:21:23.186Z,8.10
2022-11-25T11:23:52.341Z,8.19
2022-11-25T11:26:27.872Z,8.15
2022-11-25T11:29:00.188Z,8.19
2022-11-25T11:31:34.593Z,8.13
2022-11-25T11:37:17.083Z,8.26
2022-11-25T11:40:14.192Z,8.19
2022-11-25T11:42:56.151Z,8.19
2022-11-25T11:45:25.429Z,8.24
2022-11-25T11:48:09.990Z,8.28
2022-11-25T11:50:48.508Z,8.32
2022-11-25T11:53:44.017Z,8.36
2022-11-25T11:56:36.192Z,8.29
2022-11-25T11:59:18.714Z,8.31
2022-11-25T12:02:17.757Z,8.32
2022-11-25T12:04:58.095Z,8.34
2022-11-25T12:07:33.655Z,8.35
2022-11-25T12:10:15.626Z,8.32
2022-11-25T12:12:49.297Z,8.31
2022-11-25T12:15:28.863Z,8.26
2022-11-25T12:18:02.673Z,8.30
2022-11-25T12:20:48.676Z,8.18
2022-11-25T12:23:31.401Z,8.15
2022-11-25T12:26:06.241Z,8.04
2022-11-25T12:28:48.083Z,7.97
2022-11-25T12:31:23.460Z,7.94
2022-11-25T12:34:03.265Z,7.91
2022-11-25T12:36:45.714Z,7.93
2022-11-25T12:39:24.682Z,7.90
2022-11-25T12:41:55.104Z,7.96
2022-11-25T12:44:43.018Z,8.05
2022-11-25T12:47:11.582Z,8.11
2022-11-25T12:49:48.507Z,8.11
2022-11-25T12:52:45.327Z,8.07
2022-11-25T12:55:19.116Z,8.00
2022-11-25T12:57:51.418Z,8.01
2022-11-25T13:00:40.376Z,8.09
2022-11-25T13:03:29.940Z,8.06
2022-11-25T13:06:16.413Z,8.09
2022-11-25T13:08:52.096Z,7.93
2022-11-25T13:11:43.746Z,8.04
2022-11-25T13:14:41.157Z,8.07
2022-11-25T13:17:12.758Z,8.06
2022-11-25T13:19:39.690Z,8.08
2022-11-25T13:22:30.050Z,7.93
2022-11-25T13:24:59.767Z,7.87
2022-11-25T13:27:33.130Z,7.95
2022-11-25T13:30:01.242Z,7.86
2022-11-25T13:32:31.493Z,7.91
2022-11-25T13:35:22.702Z,7.94
2022-11-25T13:37:50.327Z,7.93
2022-11-25T13:40:23.580Z,7.97
2022-11-25T13:42:52.184Z,7.97
2022-11-25T13:45:38.554Z,7.99
2022-11-25T13:48:13.616Z,8.05
2022-11-25T13:51:09.398Z,8.10
2022-11-25T13:53:35.583Z,8.12
2022-11-25T13:56:33.041Z,8.10
2022-11-25T13:59:11.798Z,8.08
2022-11-25T14:01:59.806Z,8.21
2022-11-25T14:04:48.171Z,8.26
2022-11-25T14:07:37.228Z,8.31
2022-11-25T14:10:15.922Z,8.32
2022-11-25T14:13:01.073Z,8.47
2022-11-25T14:15:49.260Z,8.29
2022-11-25T14:18:51.151Z,8.42
2022-11-25T14:21:44.453Z,8.29
2022-11-25T14:24:17.591Z,8.31
2022-11-25T14:26:50.707Z,8.47
2022-11-25T14:29:32.653Z,8.50
2022-11-25T14:32:10.850Z,8.59
2022-11-25T14:34:43.116Z,8.54
2022-11-25T14:37:18.601Z,8.48
2022-11-25T14:39:58.085Z,8.46
2022-11-25T14:42:32.493Z,8.36
2022-11-25T14:44:59.510Z,8.42
2022-11-25T14:47:28.377Z,8.36
2022-11-25T14:52:47.919Z,8.53
2022-11-25T14:55:26.793Z,8.50
2022-11-25T14:57:53.570Z,8.40
2022-11-25T15:00:20.949Z,8.39
2022-11-25T15:03:00.943Z,8.39
2022-11-25T15:08:07.897Z,8.39
2022-11-25T15:10:41.106Z,8.42
2022-11-25T15:13:33.503Z,8.34
2022-11-25T15:16:22.905Z,8.25
2022-11-25T15:18:53.535Z,8.40
2022-11-25T15:24:27.420Z,8.35
2022-11-25T15:26:57.281Z,8.32
2022-11-25T15:29:24.588Z,8.33
2022-11-25T15:31:53.536Z,8.32
2022-11-25T15:34:21.994Z,8.35
2022-11-25T15:36:54.048Z,8.27
2022-11-25T15:39:21.130Z,8.34
2022-11-25T15:41:49.610Z,8.39
2022-11-25T15:44:28.845Z,8.34
2022-11-25T15:47:01.022Z,8.36
2022-11-25T15:49:28.265Z,8.38
2022-11-25T15:52:06.079Z,8.30
2022-11-25T15:54:39.841Z,8.33
2022-11-25T15:57:22.121Z,8.35
2022-11-25T16:00:19.321Z,8.35
2022-11-25T16:02:45.962Z,8.40
2022-11-25T16:05:12.655Z,8.35
2022-11-25T16:07:40.011Z,8.30
2022-11-25T16:10:28.622Z,8.24
2022-11-25T16:13:22.160Z,8.19
2022-11-25T16:15:55.882Z,8.23
2022-11-25T16:18:51.756Z,8.19
2022-11-25T16:21:30.867Z,7.99
2022-11-25T16:24:20.025Z,7.96
2022-11-25T16:27:00.932Z,7.92
2022-11-25T16:29:30.957Z,7.86
2022-11-25T16:31:58.590Z,7.84
2022-11-25T16:34:26.887Z,7.84
2022-11-25T16:36:54.442Z,7.90
2022-11-25T16:39:21.255Z,7.93
2022-11-25T16:41:56.376Z,7.90
2022-11-25T16:44:25.467Z,7.92
2022-11-25T16:46:53.476Z,7.99
2022-11-25T16:49:21.712Z,7.97
2022-11-25T16:51:50.690Z,7.96
2022-11-25T16:54:21.909Z,8.00
2022-11-25T16:56:52.069Z,7.97
2022-11-25T17:02:02.074Z,7.80
2022-11-25T17:04:28.936Z,7.84
2022-11-25T17:07:30.614Z,7.86
2022-11-25T17:12:22.640Z,7.86
2022-11-25T17:14:49.610Z,7.74
2022-11-25T17:17:24.584Z,7.75
2022-11-25T17:19:52.640Z,7.81
2022-11-25T17:22:24.695Z,7.85
2022-11-25T17:24:51.631Z,7.84
2022-11-25T17:27:28.899Z,7.89
2022-11-25T17:29:57.480Z,7.88
2022-11-25T17:32:25.646Z,7.91
2022-11-25T17:34:52.441Z,7.90
2022-11-25T17:37:23.269Z,7.93
2022-11-25T17:39:53.748Z,8.10
2022-11-25T17:42:28.039Z,8.06
2022-11-25T17:47:26.704Z,8.01
2022-11-25T17:49:53.498Z,8.03
2022-11-25T17:52:20.189Z,10.37
2022-11-25T17:54:46.922Z,9.17
2022-11-25T17:57:21.132Z,8.76
2022-11-25T17:59:47.976Z,8.60
2022-11-25T18:02:20.060Z,8.16
2022-11-25T18:04:46.883Z,8.03
2022-11-25T18:07:13.793Z,8.04
2022-11-25T18:09:40.417Z,8.06
2022-11-25T18:12:13.034Z,7.92
2022-11-25T18:14:42.978Z,8.01
2022-11-25T18:17:16.844Z,8.01
2022-11-25T18:19:43.580Z,8.01
2022-11-25T18:22:18.768Z,7.96
2022-11-25T18:27:28.867Z,8.07
2022-11-25T18:29:56.562Z,7.95
2022-11-25T18:32:24.864Z,7.96
2022-11-25T18:34:52.339Z,8.07
2022-11-25T18:39:57.415Z,7.83
2022-11-25T18:42:26.985Z,7.79
2022-11-25T18:44:55.344Z,7.88
2022-11-25T18:47:22.174Z,7.88
2022-11-25T18:49:55.166Z,7.88
2022-11-25T18:52:23.630Z,7.89
2022-11-25T18:57:21.668Z,7.81
2022-11-25T19:02:20.476Z,7.83
2022-11-25T19:04:47.227Z,7.70
2022-11-25T19:07:13.952Z,7.70
2022-11-25T19:12:17.223Z,7.73
2022-11-25T19:14:44.129Z,7.62
2022-11-25T19:17:21.474Z,7.67
2022-11-25T19:19:48.148Z,7.56
2022-11-25T19:22:16.446Z,7.69
2022-11-25T19:24:43.328Z,7.66
2022-11-25T19:27:23.551Z,7.62
2022-11-25T19:29:52.100Z,7.67
2022-11-25T19:32:28.277Z,7.64
2022-11-25T19:35:05.946Z,7.68
2022-11-25T19:37:32.590Z,7.66
2022-11-25T19:39:59.325Z,7.67
2022-11-25T19:42:26.062Z,7.65
2022-11-25T19:44:55.666Z,7.66
2022-11-25T19:47:26.844Z,7.62
2022-11-25T19:49:58.298Z,7.64
2022-11-25T19:55:18.574Z,7.68
2022-11-25T19:57:45.704Z,7.64
2022-11-25T20:00:14.435Z,7.68
2022-11-25T20:02:42.156Z,7.64
2022-11-25T20:05:09.844Z,7.65
2022-11-25T20:07:37.020Z,7.53
2022-11-25T20:10:19.187Z,7.55
2022-11-25T20:12:46.332Z,7.47
2022-11-25T20:15:13.388Z,7.41
2022-11-25T20:17:44.150Z,7.48
2022-11-25T20:20:18.007Z,7.42
2022-11-25T20:22:55.782Z,7.37
2022-11-25T20:25:23.157Z,7.41
2022-11-25T20:27:49.787Z,7.44
2022-11-25T20:30:20.472Z,7.49
2022-11-25T20:35:19.291Z,7.44
2022-11-25T20:37:54.510Z,7.33
2022-11-25T20:40:25.778Z,7.33
2022-11-25T20:42:53.378Z,7.31
2022-11-25T20:45:23.522Z,7.15
2022-11-25T20:47:51.203Z,7.06
2022-11-25T20:50:19.902Z,7.13
2022-11-25T20:52:50.503Z,7.08
2022-11-25T20:55:19.306Z,6.98
2022-11-25T20:57:46.750Z,7.01
2022-11-25T21:00:19.064Z,7.07
2022-11-25T21:02:46.261Z,7.07
2022-11-25T21:05:12.990Z,7.11
2022-11-25T21:07:40.109Z,7.12
2022-11-25T21:10:26.033Z,7.10
2022-11-25T21:12:53.281Z,7.18
2022-11-25T21:15:23.122Z,7.14
2022-11-25T21:17:51.793Z,6.98
2022-11-25T21:20:19.216Z,7.08
2022-11-25T21:22:49.557Z,7.19
2022-11-25T21:25:18.898Z,6.99
2022-11-25T21:27:47.417Z,7.19
2022-11-25T21:30:23.218Z,7.04
2022-11-25T21:35:32.247Z,6.84
2022-11-25T21:38:01.966Z,7.01
2022-11-25T21:40:44.275Z,6.79
2022-11-25T21:43:21.710Z,6.79
2022-11-25T21:45:50.261Z,6.64
2022-11-25T21:48:23.141Z,6.67
2022-11-25T21:50:49.941Z,6.70
2022-11-25T21:53:18.493Z,6.71
2022-11-25T21:55:46.201Z,6.53
2022-11-25T21:58:22.698Z,6.56
2022-11-25T22:00:56.100Z,6.76
2022-11-25T22:05:58.270Z,6.68
2022-11-25T22:08:24.911Z,6.73
2022-11-25T22:10:54.197Z,6.84
2022-11-25T22:13:29.961Z,6.77
2022-11-25T22:15:59.100Z,6.85
2022-11-25T22:18:30.793Z,6.80
2022-11-25T22:20:57.998Z,6.78
2022-11-25T22:23:24.954Z,6.79
2022-11-25T22:25:52.304Z,6.85
2022-11-25T22:28:23.020Z,6.92
2022-11-25T22:31:07.931Z,6.82
2022-11-25T22:33:37.522Z,6.91
2022-11-25T22:36:05.121Z,6.81
2022-11-25T22:38:32.112Z,6.88
2022-11-25T22:41:01.826Z,6.95
2022-11-25T22:43:35.516Z,6.98
2022-11-25T22:46:03.431Z,7.04
2022-11-25T22:48:38.977Z,6.97
2022-11-25T22:51:06.394Z,7.06
2022-11-25T22:53:33.058Z,7.02
2022-11-25T22:56:00.211Z,7.04
2022-11-25T22:58:27.955Z,7.12
2022-11-25T23:00:56.732Z,6.96
2022-11-25T23:03:29.443Z,7.11
2022-11-25T23:05:57.202Z,7.20
2022-11-25T23:08:26.926Z,7.13
2022-11-25T23:10:54.975Z,7.14
2022-11-25T23:13:22.223Z,7.13
2022-11-25T23:15:53.419Z,7.11
2022-11-25T23:18:46.011Z,7.21
2022-11-25T23:21:23.527Z,7.25
2022-11-25T23:23:50.568Z,7.30
2022-11-25T23:26:17.738Z,7.17
2022-11-25T23:28:44.383Z,7.21
2022-11-25T23:31:13.945Z,7.21
2022-11-25T23:36:35.497Z,7.13
2022-11-25T23:39:03.984Z,7.29
2022-11-25T23:41:33.831Z,7.36
2022-11-25T23:44:17.057Z,7.39
2022-11-25T23:46:44.475Z,7.46
2022-11-25T23:49:27.776Z,8.72
2022-11-25T23:52:04.600Z,8.92
2022-11-25T23:54:40.681Z,9.03
2022-11-25T23:57:14.545Z,8.55
2022-11-25T23:59:41.602Z,8.14
